createdAt,value
2023-01-23T00:00:06.319Z,99927.44
2023-01-23T00:02:32.795Z,99926.53
2023-01-23T00:04:59.510Z,99930.19
2023-01-23T00:07:26.255Z,99929.50
2023-01-23T00:09:52.722Z,99936.16
2023-01-23T00:12:19.226Z,99933.25
2023-01-23T00:14:45.709Z,99930.28
2023-01-23T00:17:12.173Z,99929.09
2023-01-23T00:19:38.632Z,99930.28
2023-01-23T00:22:05.092Z,99927.94
2023-01-23T00:24:31.810Z,99928.66
2023-01-23T00:26:58.277Z,99930.31
2023-01-23T00:29:24.746Z,99928.03
2023-01-23T00:31:51.264Z,99932.94
2023-01-23T00:34:17.768Z,99929.50
2023-01-23T00:36:44.565Z,99937.19
2023-01-23T00:39:19.120Z,99930.09
2023-01-23T00:41:46.261Z,99935.44
2023-01-23T00:44:12.825Z,99938.75
2023-01-23T00:46:39.384Z,99938.97
2023-01-23T00:49:05.906Z,99955.00
2023-01-23T00:51:32.516Z,99946.56
2023-01-23T00:53:59.072Z,99944.56
2023-01-23T00:56:25.541Z,99944.47
2023-01-23T00:58:52.038Z,99940.06
2023-01-23T01:01:18.578Z,99938.41
2023-01-23T01:03:45.122Z,99942.50
2023-01-23T01:06:11.806Z,99948.50
2023-01-23T01:08:38.349Z,99947.38
2023-01-23T01:11:04.924Z,99942.50
2023-01-23T01:13:31.458Z,99953.72
2023-01-23T01:15:58.073Z,99955.16
2023-01-23T01:18:24.596Z,99966.06
2023-01-23T01:20:51.098Z,99964.34
2023-01-23T01:23:17.667Z,99968.13
2023-01-23T01:25:44.293Z,99967.31
2023-01-23T01:28:11.056Z,99978.47
2023-01-23T01:30:37.627Z,99981.19
2023-01-23T01:33:04.253Z,99984.09
2023-01-23T01:35:30.920Z,99977.81
2023-01-23T01:37:57.472Z,99982.38
2023-01-23T01:40:26.702Z,99984.00
2023-01-23T01:43:04.619Z,99986.59
2023-01-23T01:46:09.738Z,99988.63
2023-01-23T01:48:55.007Z,99989.81
2023-01-23T01:51:46.267Z,99992.78
2023-01-23T01:54:41.748Z,99991.47
2023-01-23T01:57:09.628Z,99987.09
2023-01-23T01:59:41.295Z,99998.25
2023-01-23T02:02:14.291Z,99998.25
2023-01-23T02:04:42.838Z,99997.41
2023-01-23T02:07:17.070Z,100001.19
2023-01-23T02:09:43.580Z,100002.91
2023-01-23T02:12:10.039Z,100008.06
2023-01-23T02:14:36.607Z,100002.84
2023-01-23T02:17:03.634Z,100006.53
2023-01-23T02:20:05.327Z,100007.72
2023-01-23T02:22:32.208Z,100009.97
2023-01-23T02:25:06.405Z,100009.63
2023-01-23T02:27:32.897Z,100009.88
2023-01-23T02:30:00.011Z,100004.88
2023-01-23T02:32:26.903Z,100007.13
2023-01-23T02:34:54.688Z,100002.50
2023-01-23T02:37:21.433Z,100011.28
2023-01-23T02:39:47.942Z,100015.22
2023-01-23T02:42:14.475Z,100021.97
2023-01-23T02:44:42.099Z,100020.78
2023-01-23T02:47:11.750Z,100021.38
2023-01-23T02:49:42.780Z,100023.19
2023-01-23T02:55:50.519Z,100024.72
2023-01-23T02:58:35.696Z,100030.19
2023-01-23T03:01:02.932Z,100029.88
2023-01-23T03:03:30.558Z,100034.75
2023-01-23T03:05:59.079Z,100039.44
2023-01-23T03:08:33.311Z,100035.50
2023-01-23T03:11:00.813Z,100044.44
2023-01-23T03:13:27.520Z,100048.22
2023-01-23T03:15:54.004Z,100050.97
2023-01-23T03:18:20.437Z,100048.59
2023-01-23T03:20:47.108Z,100044.91
2023-01-23T03:23:14.601Z,100041.94
2023-01-23T03:25:44.519Z,100045.03
2023-01-23T03:28:31.127Z,100048.81
2023-01-23T03:30:58.180Z,100046.91
2023-01-23T03:33:25.543Z,100043.00
2023-01-23T03:35:51.974Z,100052.38
2023-01-23T03:38:19.668Z,100051.06
2023-01-23T03:41:04.888Z,100053.44
2023-01-23T03:43:34.311Z,100048.47
2023-01-23T03:46:00.753Z,100054.03
2023-01-23T03:48:27.196Z,100043.00
2023-01-23T03:50:53.671Z,100056.53
2023-01-23T03:53:20.162Z,100059.91
2023-01-23T03:55:46.932Z,100050.66
2023-01-23T03:58:13.464Z,100061.06
2023-01-23T04:00:39.899Z,100054.03
2023-01-23T04:03:06.375Z,100066.03
2023-01-23T04:05:32.848Z,100062.00
2023-01-23T04:07:59.285Z,100078.13
2023-01-23T04:10:25.732Z,100084.31
2023-01-23T04:12:52.180Z,100081.59
2023-01-23T04:15:18.609Z,100076.81
2023-01-23T04:17:45.058Z,100084.84
2023-01-23T04:20:12.317Z,100086.09
2023-01-23T04:22:38.810Z,100081.56
2023-01-23T04:25:05.736Z,100074.22
2023-01-23T04:27:32.278Z,100073.03
2023-01-23T04:29:59.042Z,100070.44
2023-01-23T04:32:25.684Z,100074.34
2023-01-23T04:34:52.185Z,100061.28
2023-01-23T04:37:18.653Z,100072.78
2023-01-23T04:39:45.168Z,100072.09
2023-01-23T04:42:11.702Z,100077.66
2023-01-23T04:44:38.189Z,100067.31
2023-01-23T04:47:04.663Z,100077.31
2023-01-23T04:49:31.414Z,100072.44
2023-01-23T04:51:57.881Z,100081.94
2023-01-23T04:54:25.565Z,100082.06
2023-01-23T04:56:52.359Z,100072.69
2023-01-23T04:59:18.891Z,100069.25
2023-01-23T05:01:45.380Z,100071.50
2023-01-23T05:04:11.834Z,100069.94
2023-01-23T05:06:38.293Z,100074.56
2023-01-23T05:09:05.484Z,100075.53
2023-01-23T05:11:32.258Z,100074.22
2023-01-23T05:13:58.752Z,100077.94
2023-01-23T05:16:25.261Z,100066.91
2023-01-23T05:18:51.746Z,100077.69
2023-01-23T05:21:18.219Z,100080.03
2023-01-23T05:23:44.686Z,100094.19
2023-01-23T05:26:13.548Z,100090.50
2023-01-23T05:28:40.053Z,100092.66
2023-01-23T05:31:06.625Z,100088.28
2023-01-23T05:33:33.180Z,100091.50
2023-01-23T05:36:00.763Z,100083.88
2023-01-23T05:38:27.510Z,100091.59
2023-01-23T05:40:54.004Z,100103.47
2023-01-23T05:43:20.467Z,100095.66
2023-01-23T05:45:46.944Z,100099.69
2023-01-23T05:48:13.418Z,100088.75
2023-01-23T05:50:40.211Z,100087.22
2023-01-23T05:53:06.666Z,100094.34
2023-01-23T05:55:33.185Z,100097.31
2023-01-23T05:57:59.659Z,100105.97
2023-01-23T06:00:26.205Z,100111.91
2023-01-23T06:02:52.774Z,100114.63
2023-01-23T06:05:19.381Z,100118.78
2023-01-23T06:07:45.835Z,100116.50
2023-01-23T06:10:12.289Z,100121.97
2023-01-23T06:12:38.756Z,100129.91
2023-01-23T06:15:05.977Z,100131.84
2023-01-23T06:17:32.488Z,100131.03
2023-01-23T06:19:58.986Z,100134.06
2023-01-23T06:22:25.491Z,100127.09
2023-01-23T06:24:52.656Z,100138.97
2023-01-23T06:27:19.211Z,100143.13
2023-01-23T06:29:45.843Z,100147.84
2023-01-23T06:32:12.306Z,100143.22
2023-01-23T06:34:38.789Z,100144.28
2023-01-23T06:37:05.525Z,100141.06
2023-01-23T06:39:32.032Z,100146.78
2023-01-23T06:41:58.496Z,100142.38
2023-01-23T06:44:24.997Z,100140.00
2023-01-23T06:46:52.822Z,100143.22
2023-01-23T06:49:19.567Z,100150.38
2023-01-23T06:51:46.059Z,100159.50
2023-01-23T06:54:12.525Z,100148.22
2023-01-23T06:56:39.019Z,100159.28
2023-01-23T06:59:05.985Z,100160.81
2023-01-23T07:01:32.982Z,100168.41
2023-01-23T07:03:59.463Z,100179.69
2023-01-23T07:06:25.939Z,100179.94
2023-01-23T07:08:52.483Z,100184.56
2023-01-23T07:11:19.533Z,100189.53
2023-01-23T07:13:46.004Z,100195.47
2023-01-23T07:16:12.570Z,100200.81
2023-01-23T07:18:39.075Z,100201.91
2023-01-23T07:21:06.471Z,100198.44
2023-01-23T07:23:33.717Z,100198.09
2023-01-23T07:26:01.249Z,100193.69
2023-01-23T07:28:28.050Z,100195.56
2023-01-23T07:30:54.579Z,100198.44
2023-01-23T07:33:21.270Z,100200.81
2023-01-23T07:35:47.746Z,100201.28
2023-01-23T07:38:14.547Z,100198.66
2023-01-23T07:40:42.876Z,100203.78
2023-01-23T07:43:09.679Z,100200.69
2023-01-23T07:45:36.150Z,100200.69
2023-01-23T07:48:02.631Z,100191.31
2023-01-23T07:50:29.118Z,100196.06
2023-01-23T07:52:56.918Z,100195.56
2023-01-23T07:55:23.478Z,100204.25
2023-01-23T07:57:49.979Z,100197.84
2023-01-23T08:00:16.831Z,100203.88
2023-01-23T08:02:43.308Z,100198.91
2023-01-23T08:05:09.950Z,100208.41
2023-01-23T08:07:36.400Z,100203.16
2023-01-23T08:10:02.874Z,100209.44
2023-01-23T08:12:29.561Z,100210.78
2023-01-23T08:14:56.037Z,100208.25
2023-01-23T08:17:22.589Z,100212.16
2023-01-23T08:19:49.232Z,100210.75
2023-01-23T08:22:15.797Z,100214.66
2023-01-23T08:24:42.594Z,100217.16
2023-01-23T08:27:09.630Z,100207.78
2023-01-23T08:29:36.113Z,100211.34
2023-01-23T08:32:02.881Z,100205.03
2023-01-23T08:34:29.516Z,100203.84
2023-01-23T08:36:55.991Z,100214.28
2023-01-23T08:39:22.463Z,100206.22
2023-01-23T08:41:48.969Z,100202.56
2023-01-23T08:44:15.501Z,100205.16
2023-01-23T08:46:43.115Z,100206.91
2023-01-23T08:49:11.300Z,100196.38
2023-01-23T08:51:37.963Z,100202.91
2023-01-23T08:54:04.473Z,100202.56
2023-01-23T08:56:31.125Z,100202.75
2023-01-23T08:58:57.637Z,100196.25
2023-01-23T09:01:25.371Z,100197.44
2023-01-23T09:03:52.210Z,100196.81
2023-01-23T09:06:19.472Z,100196.13
2023-01-23T09:08:45.975Z,100208.81
2023-01-23T09:11:12.579Z,100215.34
2023-01-23T09:13:39.114Z,100219.84
2023-01-23T09:16:06.155Z,100215.22
2023-01-23T09:18:32.947Z,100213.19
2023-01-23T09:20:59.492Z,100214.28
2023-01-23T09:23:26.294Z,100206.78
2023-01-23T09:25:52.809Z,100213.91
2023-01-23T09:28:19.273Z,100219.03
2023-01-23T09:30:45.824Z,100209.38
2023-01-23T09:33:12.489Z,100213.72
2023-01-23T09:35:39.022Z,100216.41
2023-01-23T09:38:07.555Z,100216.75
2023-01-23T09:40:48.258Z,100227.81
2023-01-23T09:43:29.400Z,100219.25
2023-01-23T09:46:11.227Z,100231.19
2023-01-23T09:48:47.987Z,100226.50
2023-01-23T09:51:31.155Z,100224.63
2023-01-23T09:54:00.672Z,100229.41
2023-01-23T09:56:33.615Z,100231.75
2023-01-23T09:59:25.109Z,100233.28
2023-01-23T10:01:51.589Z,100226.72
2023-01-23T10:04:18.263Z,100232.09
2023-01-23T10:06:59.425Z,100233.06
2023-01-23T10:09:35.135Z,100242.78
2023-01-23T10:12:17.359Z,100241.47
2023-01-23T10:15:02.847Z,100244.22
2023-01-23T10:17:42.062Z,100242.69
2023-01-23T10:20:20.993Z,100241.50
2023-01-23T10:23:07.849Z,100239.91
2023-01-23T10:25:37.616Z,100238.44
2023-01-23T10:28:38.784Z,100233.88
2023-01-23T10:31:31.704Z,100237.56
2023-01-23T10:34:18.400Z,100228.28
2023-01-23T10:36:55.195Z,100225.31
2023-01-23T10:39:31.475Z,100221.03
2023-01-23T10:42:02.342Z,100229.34
2023-01-23T10:44:29.340Z,100232.56
2023-01-23T10:47:01.169Z,100223.31
2023-01-23T10:49:35.182Z,100224.97
2023-01-23T10:52:05.315Z,100220.19
2023-01-23T10:54:33.373Z,100225.59
2023-01-23T10:57:04.131Z,100227.00
2023-01-23T10:59:48.594Z,100227.88
2023-01-23T11:02:15.052Z,100226.56
2023-01-23T11:04:42.937Z,100225.66
2023-01-23T11:07:35.571Z,100223.31
2023-01-23T11:10:15.710Z,100215.13
2023-01-23T11:12:49.021Z,100219.41
2023-01-23T11:15:25.218Z,100216.22
2023-01-23T11:17:52.243Z,100216.66
2023-01-23T11:20:29.071Z,100210.63
2023-01-23T11:23:02.941Z,100210.53
2023-01-23T11:25:35.425Z,100216.25
2023-01-23T11:28:03.864Z,100212.16
2023-01-23T11:30:38.578Z,100215.19
2023-01-23T11:33:08.053Z,100195.63
2023-01-23T11:35:34.339Z,100189.59
2023-01-23T11:38:00.786Z,100188.94
2023-01-23T11:40:27.214Z,100189.81
2023-01-23T11:42:53.810Z,100192.22
2023-01-23T11:46:01.581Z,100184.09
2023-01-23T11:48:40.759Z,100173.66
2023-01-23T11:51:20.071Z,100177.97
2023-01-23T11:54:00.335Z,100185.09
2023-01-23T11:56:32.607Z,100180.47
2023-01-23T11:59:21.253Z,100186.56
2023-01-23T12:02:04.848Z,100174.28
2023-01-23T12:04:51.191Z,100175.59
2023-01-23T12:07:21.794Z,100175.81
2023-01-23T12:09:57.543Z,100175.81
2023-01-23T12:12:29.979Z,100173.25
2023-01-23T12:15:06.036Z,100168.41
2023-01-23T12:17:36.609Z,100174.91
2023-01-23T12:20:21.345Z,100172.75
2023-01-23T12:22:50.975Z,100170.91
2023-01-23T12:25:36.916Z,100164.03
2023-01-23T12:28:18.121Z,100169.78
2023-01-23T12:30:50.762Z,100173.06
2023-01-23T12:33:29.162Z,100175.06
2023-01-23T12:36:01.378Z,100181.59
2023-01-23T12:38:31.725Z,100179.31
2023-01-23T12:41:10.730Z,100181.78
2023-01-23T12:43:43.615Z,100182.59
2023-01-23T12:46:19.738Z,100186.94
2023-01-23T12:48:54.746Z,100190.25
2023-01-23T12:51:28.559Z,100189.91
2023-01-23T12:53:57.548Z,100187.16
2023-01-23T12:56:31.472Z,100191.22
2023-01-23T12:59:29.805Z,100190.88
2023-01-23T13:02:05.857Z,100189.97
2023-01-23T13:04:43.693Z,100195.13
2023-01-23T13:07:21.226Z,100194.53
2023-01-23T13:10:07.222Z,100198.09
2023-01-23T13:12:34.122Z,100195.13
2023-01-23T13:15:38.854Z,100198.81
2023-01-23T13:18:08.784Z,100198.16
2023-01-23T13:20:55.330Z,100201.66
2023-01-23T13:23:32.219Z,100202.53
2023-01-23T13:26:20.596Z,100205.63
2023-01-23T13:28:57.198Z,100196.47
2023-01-23T13:31:40.784Z,100202.97
2023-01-23T13:34:16.452Z,100209.53
2023-01-23T13:36:43.758Z,100211.78
2023-01-23T13:39:13.134Z,100210.16
2023-01-23T13:41:39.568Z,100215.34
2023-01-23T13:44:27.111Z,100211.59
2023-01-23T14:21:41.852Z,100250.50
2023-01-23T14:24:29.268Z,100252.00
2023-01-23T14:27:08.370Z,100246.34
2023-01-23T14:29:35.022Z,100253.00
2023-01-23T14:32:01.526Z,100249.19
2023-01-23T14:34:28.217Z,100255.63
2023-01-23T14:37:06.935Z,100263.25
2023-01-23T14:39:34.285Z,100263.25
2023-01-23T14:42:02.637Z,100267.75
2023-01-23T14:44:41.887Z,100263.25
2023-01-23T14:47:42.488Z,100289.41
2023-01-23T14:50:35.810Z,100277.44
2023-01-23T14:53:04.316Z,100279.09
2023-01-23T14:55:31.117Z,100280.75
2023-01-23T14:57:58.510Z,100277.91
2023-01-23T15:00:25.077Z,100286.22
2023-01-23T15:02:51.682Z,100288.13
2023-01-23T15:05:19.835Z,100284.22
2023-01-23T15:07:54.864Z,100282.78
2023-01-23T15:10:44.647Z,100288.03
2023-01-23T15:13:32.777Z,100290.28
2023-01-23T15:16:02.039Z,100294.59
2023-01-23T15:18:29.837Z,100298.63
2023-01-23T15:21:02.784Z,100292.31
2023-01-23T15:23:33.599Z,100294.25
2023-01-23T15:26:18.530Z,100295.88
2023-01-23T15:28:55.115Z,100303.41
2023-01-23T15:31:32.324Z,100304.22
2023-01-23T15:34:17.287Z,100294.50
2023-01-23T15:36:53.961Z,100303.25
2023-01-23T15:39:35.057Z,100296.16
2023-01-23T15:42:02.519Z,100294.59
2023-01-23T15:44:30.475Z,100293.75
2023-01-23T15:47:01.008Z,100295.66
2023-01-23T15:49:28.520Z,100294.59
2023-01-23T15:51:56.351Z,100284.13
2023-01-23T15:54:33.451Z,100290.94
2023-01-23T15:57:07.677Z,100293.31
2023-01-23T15:59:34.759Z,100300.06
2023-01-23T16:02:01.225Z,100293.91
2023-01-23T16:04:27.725Z,100307.44
2023-01-23T16:06:54.233Z,100307.44
2023-01-23T16:09:27.987Z,100303.41
2023-01-23T16:11:54.598Z,100309.09
2023-01-23T16:14:21.131Z,100316.59
2023-01-23T16:16:47.642Z,100305.19
2023-01-23T16:19:14.254Z,100305.19
2023-01-23T16:21:45.843Z,100298.63
2023-01-23T16:24:21.723Z,100300.28
2023-01-23T16:26:49.157Z,100296.16
2023-01-23T16:29:32.210Z,100301.63
2023-01-23T16:31:59.361Z,100296.88
2023-01-23T16:34:26.186Z,100315.16
2023-01-23T16:36:53.987Z,100312.44
2023-01-23T16:39:22.768Z,100306.47
2023-01-23T16:41:49.450Z,100310.63
2023-01-23T16:44:19.091Z,100302.44
2023-01-23T16:46:45.919Z,100317.41
2023-01-23T16:49:13.198Z,100313.13
2023-01-23T16:51:40.584Z,100315.63
2023-01-23T16:54:18.345Z,100317.78
2023-01-23T16:56:45.389Z,100311.09
2023-01-23T16:59:15.298Z,100314.19
2023-01-23T17:01:43.647Z,100318.38
2023-01-23T17:04:10.244Z,100320.13
2023-01-23T17:06:36.774Z,100313.38
2023-01-23T17:09:03.313Z,100315.88
2023-01-23T17:11:34.081Z,100312.19
2023-01-23T17:14:15.067Z,100321.56
2023-01-23T17:16:41.573Z,100317.16
2023-01-23T17:19:17.353Z,100319.91
2023-01-23T17:21:44.270Z,100320.38
2023-01-23T17:24:17.212Z,100329.63
2023-01-23T17:26:47.342Z,100327.50
2023-01-23T17:29:15.160Z,100338.06
2023-01-23T17:31:41.734Z,100343.06
2023-01-23T17:34:16.929Z,100341.16
2023-01-23T17:36:43.436Z,100357.56
2023-01-23T17:39:10.795Z,100352.44
2023-01-23T17:41:37.316Z,100345.91
2023-01-23T17:44:04.305Z,100348.19
2023-01-23T17:46:32.239Z,100342.13
2023-01-23T17:48:58.768Z,100346.03
2023-01-23T17:51:25.493Z,100338.78
2023-01-23T17:53:52.219Z,100343.88
2023-01-23T17:56:18.705Z,100344.34
2023-01-23T17:58:45.330Z,100340.56
2023-01-23T18:01:20.466Z,100338.66
2023-01-23T18:03:47.143Z,100348.88
2023-01-23T18:06:13.628Z,100340.47
2023-01-23T18:08:42.248Z,100346.75
2023-01-23T18:11:16.109Z,100349.50
2023-01-23T18:14:15.552Z,100352.00
2023-01-23T18:16:45.076Z,100348.66
2023-01-23T18:19:16.722Z,100347.91
2023-01-23T18:21:44.649Z,100340.56
2023-01-23T18:24:23.898Z,100344.84
2023-01-23T18:26:56.134Z,100347.91
2023-01-23T18:29:43.823Z,100345.78
2023-01-23T18:32:34.565Z,100350.31
2023-01-23T18:35:10.063Z,100356.00
2023-01-23T18:37:49.124Z,100356.00
2023-01-23T18:40:21.084Z,100350.66
2023-01-23T18:43:09.019Z,100350.41
2023-01-23T18:45:35.711Z,100351.38
2023-01-23T18:48:02.408Z,100351.50
2023-01-23T18:50:29.145Z,100353.16
2023-01-23T18:53:17.242Z,100362.31
2023-01-23T18:56:03.282Z,100351.63
2023-01-23T18:58:47.958Z,100356.13
2023-01-23T19:01:42.824Z,100359.13
2023-01-23T19:04:14.509Z,100355.88
2023-01-23T19:06:41.674Z,100358.28
2023-01-23T19:09:18.327Z,100353.38
2023-01-23T19:12:20.549Z,100355.78
2023-01-23T19:14:57.418Z,100359.13
2023-01-23T19:17:40.128Z,100370.03
2023-01-23T19:20:29.877Z,100375.50
2023-01-23T19:23:16.219Z,100373.72
2023-01-23T19:25:45.424Z,100374.31
2023-01-23T19:28:14.461Z,100366.72
2023-01-23T19:30:42.286Z,100378.56
2023-01-23T19:33:18.530Z,100382.50
2023-01-23T19:35:45.409Z,100386.06
2023-01-23T19:38:11.903Z,100389.16
2023-01-23T19:40:38.451Z,100402.69
2023-01-23T19:43:14.117Z,100397.59
2023-01-23T19:45:41.563Z,100393.06
2023-01-23T19:48:08.957Z,100401.38
2023-01-23T19:50:35.423Z,100391.53
2023-01-23T19:53:01.923Z,100403.53
2023-01-23T19:55:33.468Z,100408.06
2023-01-23T19:58:00.020Z,100402.59
2023-01-23T20:00:29.210Z,100411.13
2023-01-23T20:02:55.845Z,100409.50
2023-01-23T20:05:22.773Z,100407.59
2023-01-23T20:07:49.571Z,100421.72
2023-01-23T20:10:16.305Z,100419.91
2023-01-23T20:12:47.136Z,100418.13
2023-01-23T20:15:14.247Z,100417.88
2023-01-23T20:17:40.942Z,100425.38
2023-01-23T20:20:09.513Z,100423.94
2023-01-23T20:22:36.197Z,100422.41
2023-01-23T20:25:02.710Z,100426.59
2023-01-23T20:27:29.206Z,100424.56
2023-01-23T20:29:55.744Z,100427.66
2023-01-23T20:32:22.222Z,100422.56
2023-01-23T20:34:48.736Z,100426.94
2023-01-23T20:37:15.421Z,100435.63
2023-01-23T20:39:42.025Z,100428.00
2023-01-23T20:42:10.674Z,100420.06
2023-01-23T20:44:37.761Z,100431.94
2023-01-23T20:47:04.305Z,100429.91
2023-01-23T20:49:30.813Z,100422.41
2023-01-23T20:52:20.143Z,100423.25
2023-01-23T20:54:46.764Z,100424.09
2023-01-23T20:57:13.880Z,100423.63
2023-01-23T20:59:40.381Z,100416.47
2023-01-23T21:02:26.992Z,100418.75
2023-01-23T21:04:53.886Z,100414.00
2023-01-23T21:07:21.458Z,100413.16
2023-01-23T21:09:47.938Z,100412.69
2023-01-23T21:12:14.447Z,100422.06
2023-01-23T21:14:40.987Z,100407.69
2023-01-23T21:17:08.879Z,100405.78
2023-01-23T21:19:36.337Z,100410.19
2023-01-23T21:22:03.021Z,100411.84
2023-01-23T21:24:34.214Z,100402.81
2023-01-23T21:27:04.618Z,100398.66
2023-01-23T21:29:31.348Z,100396.91
2023-01-23T21:31:58.045Z,100393.94
2023-01-23T21:34:25.106Z,100397.25
2023-01-23T21:36:51.627Z,100394.16
2023-01-23T21:39:18.343Z,100394.16
2023-01-23T21:41:44.853Z,100390.84
2023-01-23T21:44:11.742Z,100388.78
2023-01-23T21:46:38.510Z,100386.31
2023-01-23T21:49:04.977Z,100388.78
2023-01-23T21:51:32.461Z,100390.00
2023-01-23T21:53:59.076Z,100396.06
2023-01-23T21:56:25.602Z,100395.00
2023-01-23T21:58:52.533Z,100390.47
2023-01-23T22:01:32.955Z,100396.66
2023-01-23T22:04:03.107Z,100390.38
2023-01-23T22:06:30.286Z,100393.44
2023-01-23T22:08:57.307Z,100394.25
2023-01-23T22:11:23.809Z,100401.84
2023-01-23T22:13:50.663Z,100400.09
2023-01-23T22:16:17.229Z,100402.81
2023-01-23T22:18:43.837Z,100397.72
2023-01-23T22:21:10.542Z,100394.25
2023-01-23T22:23:37.017Z,100393.06
2023-01-23T22:26:08.096Z,100385.00
2023-01-23T22:28:34.767Z,100387.72
2023-01-23T22:31:10.795Z,100388.69
2023-01-23T22:33:40.827Z,100382.03
2023-01-23T22:36:08.023Z,100376.81
2023-01-23T22:38:34.507Z,100378.09
2023-01-23T22:41:02.290Z,100379.53
2023-01-23T22:43:28.825Z,100380.38
2023-01-23T22:46:05.589Z,100374.53
2023-01-23T22:48:33.172Z,100372.03
2023-01-23T22:51:01.324Z,100367.78
2023-01-23T22:53:27.811Z,100370.13
2023-01-23T22:55:54.290Z,100373.59
2023-01-23T22:58:21.000Z,100363.63
2023-01-23T23:00:51.930Z,100366.94
2023-01-23T23:03:19.640Z,100363.97
2023-01-23T23:05:46.147Z,100364.34
2023-01-23T23:08:12.613Z,100362.91
2023-01-23T23:10:39.101Z,100361.38
2023-01-23T23:13:06.439Z,100354.72
2023-01-23T23:15:34.630Z,100348.66
2023-01-23T23:18:01.115Z,100348.06
2023-01-23T23:20:27.971Z,100343.78
2023-01-23T23:22:54.452Z,100342.13
2023-01-23T23:25:21.273Z,100344.84
2023-01-23T23:27:47.889Z,100341.06
2023-01-23T23:30:14.637Z,100331.56
2023-01-23T23:32:41.107Z,100342.13
2023-01-23T23:35:08.269Z,100344.84
2023-01-23T23:37:34.989Z,100336.03
2023-01-23T23:40:01.473Z,100334.53
2023-01-23T23:42:27.970Z,100340.94
2023-01-23T23:44:54.755Z,100340.59
2023-01-23T23:47:21.224Z,100334.53
2023-01-23T23:49:47.681Z,100331.69
2023-01-23T23:52:14.167Z,100336.03
2023-01-23T23:54:40.775Z,100341.50
2023-01-23T23:57:07.290Z,100339.50
2023-01-23T23:59:33.795Z,100337.16
